Time;durP1;ratioP1;P1;durP2;ratioP2;P2;SDS_P1;SDS_P2;PMS_P1;PMS_P2;Temp;Humidity;BMP_temperature;BMP_pressure;BME280_temperature;BME280_humidity;BME280_pressure;Samples;Min_cycle;Max_cycle;Signal;HPM_P1;HPM_P2
2023/03/08 07:11:27;;;;;;;;;1.50;1.00;;;;;17.46;41.63;98842.28;4993460;27;45500;-76
2023/03/08 07:13:53;;;;;;;;;0.00;0.00;;;;;17.92;42.68;98841.53;4982854;27;46445;-75
2023/03/08 07:16:18;;;;;;;;;1.75;1.75;;;;;18.60;42.90;98850.81;4985771;28;45379;-77
2023/03/08 07:18:43;;;;;;;;;1.25;0.50;;;;;19.37;42.83;98850.72;4984743;28;45395;-78
2023/03/08 07:21:09;;;;;;;;;0.50;0.50;;;;;20.19;42.45;98851.47;4983037;27;45678;-77
2023/03/08 07:23:35;;;;;;;;;1.00;1.00;;;;;20.93;42.33;98862.88;4986098;28;45443;-77
2023/03/08 07:26:04;;;;;;;;;0.25;0.25;;;;;21.65;41.25;98858.28;4982853;28;45365;-77
2023/03/08 07:28:30;;;;;;;;;0.33;0.33;;;;;22.27;41.01;98858.28;4980268;28;45380;-75
2023/03/08 07:30:55;;;;;;;;;2.00;1.00;;;;;22.82;40.03;98857.31;4985582;27;45495;-74
2023/03/08 07:33:21;;;;;;;;;2.33;2.33;;;;;23.30;39.31;98848.03;4979696;27;56469;-76
2023/03/08 07:35:47;;;;;;;;;1.00;1.00;;;;;23.77;38.87;98857.03;4981684;28;45486;-75
2023/03/08 07:38:13;;;;;;;;;2.67;2.33;;;;;24.15;38.46;98867.06;4983986;28;45548;-75
2023/03/08 07:40:39;;;;;;;;;1.00;1.00;;;;;24.50;37.77;98848.69;4981698;28;45951;-76
2023/03/08 07:43:05;;;;;;;;;1.00;1.00;;;;;24.79;37.13;98846.34;4969842;27;45379;-75
2023/03/08 07:45:30;;;;;;;;;1.00;0.67;;;;;25.08;36.86;98854.88;4982988;28;45506;-75
2023/03/08 07:47:55;;;;;;;;;0.33;0.33;;;;;25.35;36.45;98860.03;4983425;28;45606;-75
2023/03/08 07:50:21;;;;;;;;;1.00;1.00;;;;;25.56;36.22;98852.50;4985944;28;46034;-75
2023/03/08 07:52:48;;;;;;;;;1.00;1.00;;;;;25.75;35.87;98842.44;4980316;28;45406;-77
2023/03/08 07:55:13;;;;;;;;;2.33;0.33;;;;;25.91;36.05;98835.50;4988096;28;45760;-78
2023/03/08 07:57:39;;;;;;;;;1.00;0.00;;;;;26.08;35.54;98830.28;4980516;28;45507;-76
2023/03/08 08:00:08;;;;;;;;;2.33;1.00;;;;;26.22;35.27;98819.19;4983607;28;45787;-80
2023/03/08 08:02:36;;;;;;;;;1.00;1.00;;;;;26.38;34.72;98829.44;4973271;28;45386;-80
2023/03/08 08:05:03;;;;;;;;;2.00;2.00;;;;;26.49;34.76;98833.25;4983613;27;45390;-82
2023/03/08 08:07:29;;;;;;;;;2.33;1.00;;;;;26.62;34.24;98839.50;4972649;28;45480;-77
2023/03/08 08:09:54;;;;;;;;;1.33;0.00;;;;;26.73;34.56;98860.44;4983618;27;45515;-78
2023/03/08 08:12:19;;;;;;;;;0.33;0.33;;;;;26.83;34.04;98863.44;4977869;28;45457;-75
2023/03/08 08:14:45;;;;;;;;;1.00;1.00;;;;;26.91;34.27;98848.63;4983425;28;45438;-77
2023/03/08 08:17:11;;;;;;;;;1.00;1.00;;;;;27.03;33.86;98858.69;4984546;27;45590;-78
2023/03/08 08:19:37;;;;;;;;;0.00;0.00;;;;;27.10;33.91;98862.97;4980192;27;45417;-78
2023/03/08 08:22:03;;;;;;;;;1.67;1.67;;;;;27.18;33.90;98861.75;4970274;28;45451;-80
2023/03/08 08:24:29;;;;;;;;;0.00;0.00;;;;;27.26;33.16;98868.72;4963598;28;45456;-79
2023/03/08 08:26:55;;;;;;;;;1.33;1.00;;;;;27.32;32.85;98862.34;4968011;28;45518;-77
2023/03/08 08:29:20;;;;;;;;;0.33;0.33;;;;;27.41;33.50;98873.69;4972118;28;46077;-80
2023/03/08 08:31:46;;;;;;;;;0.67;0.33;;;;;27.49;33.32;98881.50;4964725;28;45467;-78
2023/03/08 08:34:11;;;;;;;;;0.67;0.67;;;;;27.56;33.05;98872.34;4998022;28;45466;-79
2023/03/08 08:36:36;;;;;;;;;1.00;0.00;;;;;27.62;33.07;98874.97;4979086;28;45465;-78
2023/03/08 08:39:02;;;;;;;;;0.33;0.33;;;;;27.69;32.96;98874.00;4980527;28;46434;-80
2023/03/08 08:41:28;;;;;;;;;0.67;0.00;;;;;27.73;32.30;98878.75;4956392;28;46509;-80
2023/03/08 08:43:57;;;;;;;;;1.00;1.00;;;;;27.80;32.39;98877.75;4961749;28;45471;-80
2023/03/08 08:46:23;;;;;;;;;0.00;0.00;;;;;27.85;32.52;98878.72;4972164;28;45630;-80
2023/03/08 08:48:48;;;;;;;;;0.00;0.00;;;;;27.88;31.95;98878.19;4969811;28;45519;-81
2023/03/08 08:51:14;;;;;;;;;0.00;0.00;;;;;27.94;31.80;98881.88;4966667;28;45455;-82
2023/03/08 08:53:39;;;;;;;;;2.33;0.00;;;;;27.95;32.47;98894.41;4957840;28;45663;-79
2023/03/08 08:56:17;;;;;;;;;3.33;2.00;;;;;27.97;32.05;98884.13;4972523;28;45991;-76
2023/03/08 08:58:42;;;;;;;;;0.00;0.00;;;;;27.98;31.32;98896.66;4960535;28;45882;-76
2023/03/08 09:01:15;;;;;;;;;0.67;0.67;;;;;27.97;30.92;98886.00;4972129;28;46307;-76
2023/03/08 09:03:40;;;;;;;;;0.00;0.00;;;;;27.93;31.32;98876.66;4985782;28;45449;-75
2023/03/08 09:06:06;;;;;;;;;0.00;0.00;;;;;27.86;31.24;98893.97;4971723;28;45367;-76
2023/03/08 09:08:31;;;;;;;;;2.00;0.67;;;;;27.83;31.10;98889.00;4972860;28;45679;-76
2023/03/08 09:11:02;;;;;;;;;1.00;1.00;;;;;27.82;31.17;98902.88;5020926;28;45431;-77
2023/03/08 09:13:27;;;;;;;;;0.00;0.00;;;;;27.79;30.57;98884.28;4972140;28;45507;-77
2023/03/08 09:15:53;;;;;;;;;1.33;0.00;;;;;27.78;30.25;98890.81;4969910;28;45589;-77
2023/03/08 09:18:18;;;;;;;;;2.00;1.67;;;;;27.74;30.27;98885.84;4959788;28;51952;-77
2023/03/08 09:20:43;;;;;;;;;2.00;2.00;;;;;27.71;30.31;98880.88;4962669;28;45352;-80
2023/03/08 09:23:09;;;;;;;;;0.67;0.00;;;;;27.71;30.40;98888.22;4970373;28;50953;-79
2023/03/08 09:25:34;;;;;;;;;3.33;1.00;;;;;27.70;30.87;98886.56;4971550;28;49248;-80
2023/03/08 09:27:59;;;;;;;;;1.33;0.33;;;;;27.71;30.40;98889.03;4961788;28;46681;-78
2023/03/08 09:30:25;;;;;;;;;0.67;0.67;;;;;27.77;31.00;98898.16;4968379;28;51009;-79
2023/03/08 09:32:50;;;;;;;;;1.00;1.00;;;;;27.79;31.25;98885.09;4970980;28;45391;-77
2023/03/08 09:35:16;;;;;;;;;0.33;0.00;;;;;27.85;31.28;98899.69;4970800;28;45429;-79
2023/03/08 09:37:41;;;;;;;;;0.00;0.00;;;;;27.88;30.79;98896.47;4971109;28;46048;-80
2023/03/08 09:40:16;;;;;;;;;1.00;1.00;;;;;27.94;30.85;98900.09;4985527;28;45500;-79
2023/03/08 09:42:42;;;;;;;;;0.00;0.00;;;;;27.96;30.77;98904.25;4980576;28;45763;-77
2023/03/08 09:45:25;;;;;;;;;0.00;0.00;;;;;28.02;30.74;98894.28;4958983;28;45521;-82
2023/03/08 09:48:19;;;;;;;;;2.00;0.67;;;;;28.06;30.93;98905.50;4972414;28;45395;-83
2023/03/08 09:50:50;;;;;;;;;1.00;0.00;;;;;28.11;30.85;98911.06;4965772;28;45474;-84
2023/03/08 09:53:15;;;;;;;;;0.00;0.00;;;;;28.14;31.02;98892.34;4969647;28;45646;-80
2023/03/08 09:55:47;;;;;;;;;0.00;0.00;;;;;28.18;31.43;98892.66;4971979;28;47343;-79
2023/03/08 09:58:16;;;;;;;;;0.00;0.00;;;;;28.22;31.33;98898.44;4971283;28;46226;-85
2023/03/08 10:00:43;;;;;;;;;0.33;0.33;;;;;28.23;31.28;98900.94;4981234;28;45383;-84
2023/03/08 10:03:11;;;;;;;;;1.33;0.33;;;;;28.28;31.23;98892.88;4959995;28;45520;-79
2023/03/08 10:05:43;;;;;;;;;4.00;1.00;;;;;28.31;30.81;98907.91;4969976;28;45348;-86
2023/03/08 10:08:49;;;;;;;;;0.00;0.00;;;;;28.36;30.92;98907.22;4969292;28;46607;-83
2023/03/08 10:11:35;;;;;;;;;1.33;1.00;;;;;28.38;30.82;98911.34;4968545;28;45690;-79
2023/03/08 10:14:19;;;;;;;;;0.00;0.00;;;;;28.41;31.47;98910.03;4971303;28;45607;-82
2023/03/08 10:16:49;;;;;;;;;2.67;0.00;;;;;28.44;31.03;98917.69;4965571;28;45404;-78
2023/03/08 10:19:36;;;;;;;;;0.00;0.00;;;;;28.46;30.77;98912.84;4969689;28;45893;-80
2023/03/08 10:22:12;;;;;;;;;0.00;0.00;;;;;28.47;30.73;98913.66;4972038;28;45451;-81
2023/03/08 10:24:47;;;;;;;;;0.00;0.00;;;;;28.49;31.43;98917.78;4969640;28;45580;-79
2023/03/08 10:27:23;;;;;;;;;0.00;0.00;;;;;28.51;31.30;98923.00;4966698;28;45746;-83
2023/03/08 10:29:54;;;;;;;;;1.67;1.00;;;;;28.53;31.43;98929.06;4967118;28;46321;-84
2023/03/08 10:32:20;;;;;;;;;0.33;0.00;;;;;28.54;31.23;98926.06;4970826;28;45409;-80
2023/03/08 10:34:46;;;;;;;;;1.00;1.00;;;;;28.56;30.92;98933.19;4964816;28;45428;-79
2023/03/08 10:37:11;;;;;;;;;0.00;0.00;;;;;28.57;31.01;98935.66;4971444;28;45699;-79
2023/03/08 10:39:51;;;;;;;;;0.00;0.00;;;;;28.58;31.55;98926.41;4970666;28;46129;-86
2023/03/08 10:42:18;;;;;;;;;0.00;0.00;;;;;28.60;31.07;98926.97;4958049;28;45425;-81
2023/03/08 10:44:51;;;;;;;;;0.33;0.00;;;;;28.62;31.12;98933.03;4963698;28;45502;-81
2023/03/08 10:47:19;;;;;;;;;0.00;0.00;;;;;28.65;31.50;98927.06;4967527;28;45595;-80
2023/03/08 10:49:46;;;;;;;;;2.00;0.67;;;;;28.72;31.60;98931.56;4961468;28;45628;-81
2023/03/08 10:52:24;;;;;;;;;0.33;0.00;;;;;28.78;31.12;98944.22;4963992;28;45586;-79
2023/03/08 10:55:04;;;;;;;;;1.00;1.00;;;;;28.87;31.40;98953.63;4967624;28;45768;-79
2023/03/08 10:57:29;;;;;;;;;0.00;0.00;;;;;28.92;31.05;98952.91;4970570;28;45406;-79
2023/03/08 10:59:59;;;;;;;;;0.00;0.00;;;;;28.96;31.07;98951.34;4970537;28;45509;-80
2023/03/08 11:02:25;;;;;;;;;0.00;0.00;;;;;28.98;31.29;98951.91;4964150;28;45520;-78
2023/03/08 11:04:55;;;;;;;;;0.00;0.00;;;;;29.00;30.88;98952.50;4963594;28;45328;-78
2023/03/08 11:07:26;;;;;;;;;1.00;0.00;;;;;29.02;31.17;98968.66;4962315;28;45597;-77
2023/03/08 11:10:14;;;;;;;;;2.00;0.33;;;;;29.01;30.59;98970.53;4976585;27;47508;-81
2023/03/08 11:12:39;;;;;;;;;0.00;0.00;;;;;29.01;31.05;98959.63;4968266;28;45422;-78
2023/03/08 11:15:16;;;;;;;;;1.00;1.00;;;;;29.02;30.77;98953.06;4969164;28;45404;-89
2023/03/08 11:17:57;;;;;;;;;0.00;0.00;;;;;29.03;31.01;98954.75;4961832;28;45498;-83
2023/03/08 11:20:27;;;;;;;;;0.00;0.00;;;;;29.03;31.03;98962.09;4965039;28;45490;-81
2023/03/08 11:23:13;;;;;;;;;0.33;0.33;;;;;29.01;30.33;98962.34;4968107;28;47082;-81
2023/03/08 11:25:54;;;;;;;;;0.00;0.00;;;;;28.93;30.42;98941.75;5036578;28;45680;-81
2023/03/08 11:28:32;;;;;;;;;0.00;0.00;;;;;28.94;30.31;98945.31;4964332;28;45810;-78
2023/03/08 11:31:06;;;;;;;;;0.00;0.00;;;;;28.90;30.19;98955.09;4968995;28;45434;-78
2023/03/08 11:34:00;;;;;;;;;1.00;0.00;;;;;28.86;30.66;98949.25;4970025;28;45949;-79
2023/03/08 11:36:42;;;;;;;;;0.00;0.00;;;;;28.83;30.59;98946.19;4966149;28;46460;-79
2023/03/08 11:39:23;;;;;;;;;0.00;0.00;;;;;28.82;30.31;98955.44;4970231;28;45654;-80
2023/03/08 11:41:58;;;;;;;;;0.00;0.00;;;;;28.78;30.79;98955.94;4967394;27;46967;-80
2023/03/08 11:44:53;;;;;;;;;1.00;1.00;;;;;28.76;30.02;98958.09;4959620;28;45557;-80
2023/03/08 11:47:28;;;;;;;;;0.00;0.00;;;;;28.74;30.78;98960.25;4957144;28;45677;-80
2023/03/08 11:50:07;;;;;;;;;0.00;0.00;;;;;28.73;30.38;98963.22;4956897;28;45530;-81
2023/03/08 11:52:50;;;;;;;;;0.00;0.00;;;;;28.75;30.40;98961.06;4971939;27;47075;-80
2023/03/08 11:55:41;;;;;;;;;0.00;0.00;;;;;28.75;30.39;98952.88;4958381;28;45689;-81
2023/03/08 11:58:24;;;;;;;;;0.00;0.00;;;;;28.78;30.46;98933.28;4962168;28;45590;-79
2023/03/08 12:00:55;;;;;;;;;0.00;0.00;;;;;28.77;30.66;98940.63;4964273;28;45493;-80
2023/03/08 12:03:28;;;;;;;;;0.00;0.00;;;;;28.78;30.18;98945.00;4961902;28;46620;-80
2023/03/08 12:06:10;;;;;;;;;1.00;0.00;;;;;28.78;30.63;98942.28;4962975;28;45502;-80
2023/03/08 12:08:44;;;;;;;;;0.67;0.00;;;;;28.76;30.11;98941.72;4969462;28;45601;-80
2023/03/08 12:11:16;;;;;;;;;0.00;0.00;;;;;28.77;29.87;98935.19;4954473;28;45407;-80
2023/03/08 12:13:56;;;;;;;;;0.00;0.00;;;;;28.78;29.79;98925.09;4981743;28;46243;-81
2023/03/08 12:16:53;;;;;;;;;0.00;0.00;;;;;28.76;30.01;98928.06;4965113;28;45404;-80
2023/03/08 12:19:42;;;;;;;;;0.00;0.00;;;;;28.82;29.69;98922.69;4966357;28;45519;-80
2023/03/08 12:22:50;;;;;;;;;0.00;0.00;;;;;28.84;30.52;98923.25;4965677;28;45513;-82
2023/03/08 12:25:28;;;;;;;;;3.33;1.00;;;;;28.83;30.03;98925.19;4964034;28;46103;-82
2023/03/08 12:28:24;;;;;;;;;0.33;0.33;;;;;28.82;30.09;98920.81;4968054;28;45538;-82
2023/03/08 12:31:21;;;;;;;;;0.00;0.00;;;;;28.77;29.70;98921.53;4968642;28;45447;-81
2023/03/08 12:33:46;;;;;;;;;0.00;0.00;;;;;28.74;29.29;98916.59;4962919;28;45496;-81
2023/03/08 12:36:12;;;;;;;;;2.00;0.00;;;;;28.73;29.10;98905.91;4969464;28;47274;-82
2023/03/08 12:38:45;;;;;;;;;0.33;0.33;;;;;28.72;29.29;98910.53;4967860;28;45365;-84
2023/03/08 12:41:30;;;;;;;;;0.00;0.00;;;;;28.71;29.04;98900.69;4966149;28;45395;-83
2023/03/08 12:44:22;;;;;;;;;0.00;0.00;;;;;28.69;28.98;98907.47;4972704;28;45328;-82
2023/03/08 12:46:58;;;;;;;;;0.00;0.00;;;;;28.67;28.83;98908.56;4961178;28;45510;-82
2023/03/08 12:49:31;;;;;;;;;0.33;0.33;;;;;28.65;28.68;98901.69;4972228;28;45331;-81
2023/03/08 12:52:03;;;;;;;;;0.00;0.00;;;;;28.64;28.73;98898.13;4971793;28;45508;-82
2023/03/08 12:54:32;;;;;;;;;1.00;1.00;;;;;28.62;28.98;98892.09;4970222;28;45883;-83
2023/03/08 12:57:01;;;;;;;;;0.00;0.00;;;;;28.63;28.90;98898.38;4959214;28;45863;-82
2023/03/08 12:59:38;;;;;;;;;0.00;0.00;;;;;28.60;28.61;98893.41;4960807;28;45522;-84
2023/03/08 13:02:15;;;;;;;;;1.33;0.67;;;;;28.58;28.44;98890.09;4995737;28;45733;-83
2023/03/08 13:04:41;;;;;;;;;1.67;0.00;;;;;28.56;29.07;98884.06;4972451;28;45579;-82
2023/03/08 13:07:18;;;;;;;;;0.00;0.00;;;;;28.56;28.65;98882.16;4966543;28;45685;-86
2023/03/08 13:09:52;;;;;;;;;1.00;1.00;;;;;28.54;29.23;98887.84;4946781;28;45620;-81
2023/03/08 13:12:22;;;;;;;;;0.33;0.33;;;;;28.53;29.57;98885.41;4946636;28;45510;-80
2023/03/08 13:15:20;;;;;;;;;0.00;0.00;;;;;28.56;28.94;98876.69;4960168;28;45586;-80
2023/03/08 13:18:07;;;;;;;;;1.00;1.00;;;;;28.62;29.36;98885.81;4959006;28;45526;-80
2023/03/08 13:20:38;;;;;;;;;0.33;0.33;;;;;28.69;29.29;98885.63;4988491;28;45462;-79
2023/03/08 13:23:24;;;;;;;;;1.00;1.00;;;;;28.69;29.18;98874.72;4975275;28;45441;-78
2023/03/08 13:26:13;;;;;;;;;0.33;0.33;;;;;28.67;28.81;98875.81;4966206;28;45598;-78
2023/03/08 13:28:41;;;;;;;;;0.00;0.00;;;;;28.63;28.85;98879.25;4975318;28;45512;-77
2023/03/08 13:31:20;;;;;;;;;1.00;1.00;;;;;28.57;29.22;98870.16;4962571;28;45457;-79
2023/03/08 13:33:49;;;;;;;;;1.00;1.00;;;;;28.52;28.81;98867.34;4969953;28;45423;-79
2023/03/08 13:36:23;;;;;;;;;2.00;0.33;;;;;28.47;29.01;98870.00;4979916;27;45563;-79
2023/03/08 13:38:59;;;;;;;;;1.33;0.00;;;;;28.43;29.25;98858.75;4971689;28;45975;-79
2023/03/08 13:41:39;;;;;;;;;0.00;0.00;;;;;28.35;28.90;98857.25;4961524;28;45444;-80
2023/03/08 13:44:14;;;;;;;;;0.00;0.00;;;;;28.31;28.47;98850.63;4970842;28;45459;-79
2023/03/08 13:46:41;;;;;;;;;1.00;1.00;;;;;28.27;28.77;98849.47;4974861;28;45583;-80
2023/03/08 13:49:24;;;;;;;;;1.67;0.67;;;;;28.24;28.54;98839.03;4970622;28;46024;-80
2023/03/08 13:51:55;;;;;;;;;0.00;0.00;;;;;28.21;28.68;98834.91;4970842;28;45514;-81
2023/03/08 13:54:47;;;;;;;;;0.00;0.00;;;;;28.19;28.63;98819.88;4963622;28;45373;-80
2023/03/08 13:57:26;;;;;;;;;2.67;1.00;;;;;28.17;28.79;98822.84;4965841;28;46034;-82
2023/03/08 13:59:54;;;;;;;;;0.00;0.00;;;;;28.15;29.30;98808.59;4963614;28;45429;-83
2023/03/08 14:02:25;;;;;;;;;2.00;1.00;;;;;28.16;29.35;98815.72;4965876;28;45506;-82
2023/03/08 14:04:51;;;;;;;;;2.00;0.00;;;;;28.21;29.17;98813.09;4968715;28;45465;-83
2023/03/08 14:07:20;;;;;;;;;0.00;0.00;;;;;28.23;29.67;98805.47;4968308;28;45532;-82
2023/03/08 14:09:46;;;;;;;;;1.00;1.00;;;;;28.27;29.58;98800.38;4970924;28;46425;-79
2023/03/08 14:12:17;;;;;;;;;1.00;1.00;;;;;28.38;30.12;98804.09;4967603;28;45556;-75
2023/03/08 14:14:45;;;;;;;;;0.00;0.00;;;;;28.44;29.77;98792.19;4976837;27;45654;-75
2023/03/08 14:17:20;;;;;;;;;1.33;1.33;;;;;28.48;29.61;98792.53;4987507;28;45622;-75
2023/03/08 14:20:01;;;;;;;;;0.00;0.00;;;;;28.47;28.72;98785.41;4964771;28;46343;-87
2023/03/08 14:22:30;;;;;;;;;3.00;0.33;;;;;28.44;29.19;98783.19;4956118;28;45535;-83
2023/03/08 14:25:00;;;;;;;;;6.00;2.00;;;;;28.43;29.70;98787.81;4950772;28;45854;-84
2023/03/08 14:27:40;;;;;;;;;1.00;0.00;;;;;28.43;29.11;98781.53;4949831;28;45499;-87
2023/03/08 14:30:32;;;;;;;;;1.67;1.00;;;;;28.44;29.11;98778.56;4957038;28;45487;-82
2023/03/08 14:33:18;;;;;;;;;2.00;1.33;;;;;28.47;29.93;98769.88;4963206;28;45917;-81
2023/03/08 14:35:52;;;;;;;;;1.00;1.00;;;;;28.46;29.33;98764.66;4985840;28;45499;-82
2023/03/08 14:38:26;;;;;;;;;1.33;0.67;;;;;28.51;30.03;98773.75;4975444;28;45823;-91
2023/03/08 14:40:52;;;;;;;;;0.00;0.00;;;;;28.55;30.00;98774.06;4965183;28;46464;-86
2023/03/08 14:43:21;;;;;;;;;0.00;0.00;;;;;28.58;29.39;98780.94;4969476;28;45596;-85
2023/03/08 14:45:54;;;;;;;;;0.33;0.33;;;;;28.61;29.60;98786.72;5005722;28;45397;-88
2023/03/08 14:48:34;;;;;;;;;2.00;0.00;;;;;28.64;29.50;98796.31;4971679;27;45866;-86
2023/03/08 14:51:15;;;;;;;;;2.00;1.00;;;;;28.67;29.83;98783.00;4970544;28;45364;-78
2023/03/08 14:53:41;;;;;;;;;0.00;0.00;;;;;28.68;29.31;98789.28;4964220;28;45517;-77
2023/03/08 14:56:09;;;;;;;;;1.00;1.00;;;;;28.68;29.27;98808.38;4966123;28;45492;-76
2023/03/08 14:58:39;;;;;;;;;0.00;0.00;;;;;28.64;29.16;98799.03;4970094;28;45451;-80
2023/03/08 15:01:04;;;;;;;;;0.33;0.00;;;;;28.60;29.33;98828.72;4963697;28;45652;-81
2023/03/08 15:03:31;;;;;;;;;1.00;1.00;;;;;28.57;28.79;98829.22;4969758;28;45463;-75
2023/03/08 15:05:57;;;;;;;;;0.00;0.00;;;;;28.52;29.16;98832.72;4970956;28;45461;-76
2023/03/08 15:08:24;;;;;;;;;1.67;1.00;;;;;28.51;29.34;98822.88;4970888;28;45630;-77
2023/03/08 15:10:49;;;;;;;;;2.33;2.33;;;;;28.48;28.71;98823.38;4969511;28;45341;-77
2023/03/08 15:13:18;;;;;;;;;1.00;1.00;;;;;28.45;28.88;98823.88;4965417;28;45786;-79
2023/03/08 15:15:44;;;;;;;;;1.00;0.00;;;;;28.39;29.15;98819.41;4965960;28;45503;-80
2023/03/08 15:18:09;;;;;;;;;1.00;1.00;;;;;28.43;29.30;98817.00;4971786;28;45662;-79
2023/03/08 15:20:38;;;;;;;;;0.00;0.00;;;;;28.43;29.17;98809.63;4970559;28;46162;-81
2023/03/08 15:23:06;;;;;;;;;0.00;0.00;;;;;28.42;29.04;98816.19;4971099;28;45575;-80
2023/03/08 15:25:36;;;;;;;;;0.00;0.00;;;;;28.46;28.99;98811.88;4954716;28;45474;-76
2023/03/08 15:28:03;;;;;;;;;1.00;1.00;;;;;28.47;28.49;98812.69;4955925;28;45882;-79
2023/03/08 15:30:30;;;;;;;;;0.00;0.00;;;;;28.48;28.57;98808.91;4954254;28;45689;-80
2023/03/08 15:32:56;;;;;;;;;1.00;1.00;;;;;28.48;28.37;98807.00;4958763;28;45494;-82
2023/03/08 15:35:22;;;;;;;;;0.00;0.00;;;;;28.49;28.61;98816.81;4956501;28;45378;-78
2023/03/08 15:37:48;;;;;;;;;1.00;1.00;;;;;28.48;28.95;98817.91;4958314;28;45875;-82
2023/03/08 15:40:20;;;;;;;;;1.00;1.00;;;;;28.47;28.55;98808.06;4964567;28;46171;-80
2023/03/08 15:42:45;;;;;;;;;0.67;0.67;;;;;28.46;28.58;98805.59;4972723;28;45517;-83
2023/03/08 15:45:11;;;;;;;;;0.00;0.00;;;;;28.46;28.83;98813.78;4973065;28;51840;-76
2023/03/08 15:47:37;;;;;;;;;0.00;0.00;;;;;28.45;29.10;98807.50;4973381;28;45637;-75
2023/03/08 15:50:05;;;;;;;;;0.33;0.33;;;;;28.43;28.74;98806.91;4969748;28;46048;-75
2023/03/08 15:52:31;;;;;;;;;0.00;0.00;;;;;28.41;28.24;98817.25;4972150;28;46035;-75
2023/03/08 15:54:57;;;;;;;;;1.00;1.00;;;;;28.38;28.88;98813.13;4972949;28;45528;-75
2023/03/08 15:57:22;;;;;;;;;0.00;0.00;;;;;28.36;28.78;98812.53;4971802;28;46815;-75
2023/03/08 15:59:48;;;;;;;;;2.33;1.00;;;;;28.33;28.41;98826.69;4976178;28;50063;-74
2023/03/08 16:02:18;;;;;;;;;0.00;0.00;;;;;28.30;28.30;98829.91;4972689;28;45425;-76
2023/03/08 16:04:46;;;;;;;;;0.00;0.00;;;;;28.27;28.32;98828.50;4971985;28;45413;-76
2023/03/08 16:07:13;;;;;;;;;0.00;0.00;;;;;28.24;28.92;98825.41;4962597;28;46474;-75
2023/03/08 16:09:39;;;;;;;;;1.00;0.00;;;;;28.20;28.77;98844.16;4970617;28;46058;-75
2023/03/08 16:12:04;;;;;;;;;0.00;0.00;;;;;28.17;28.69;98847.38;4970825;28;45354;-76
2023/03/08 16:14:29;;;;;;;;;2.00;0.00;;;;;28.13;28.55;98836.13;4968817;28;45470;-74
2023/03/08 16:16:55;;;;;;;;;0.67;0.67;;;;;28.13;29.04;98847.03;4971134;28;45565;-73
2023/03/08 16:19:20;;;;;;;;;0.00;0.00;;;;;28.13;29.15;98847.03;4972300;28;45770;-72
2023/03/08 16:21:46;;;;;;;;;0.00;0.00;;;;;28.14;29.10;98850.59;4972151;28;51129;-73
2023/03/08 16:24:11;;;;;;;;;0.67;0.67;;;;;28.15;29.15;98850.34;4972722;28;45559;-73
2023/03/08 16:26:36;;;;;;;;;0.00;0.00;;;;;28.17;28.53;98847.38;4969891;28;45575;-73
2023/03/08 16:29:03;;;;;;;;;0.00;0.00;;;;;28.18;29.21;98840.00;4969987;28;45530;-73
2023/03/08 16:31:31;;;;;;;;;0.00;0.00;;;;;28.17;28.41;98841.94;4971571;28;45466;-77
2023/03/08 16:33:57;;;;;;;;;0.00;0.00;;;;;28.18;28.81;98840.84;4953005;28;45495;-83
2023/03/08 16:36:23;;;;;;;;;0.00;0.00;;;;;28.20;28.73;98837.88;4958073;28;45629;-89
2023/03/08 16:38:48;;;;;;;;;0.00;0.00;;;;;28.22;28.65;98839.28;4996610;28;45509;-82
2023/03/08 16:41:13;;;;;;;;;1.00;1.00;;;;;28.27;29.25;98828.50;4978008;28;45794;-82
2023/03/08 16:43:40;;;;;;;;;0.00;0.00;;;;;28.30;29.23;98819.00;4970554;28;45482;-82
2023/03/08 16:46:05;;;;;;;;;1.00;0.00;;;;;28.35;28.86;98812.78;4969216;28;45471;-83
2023/03/08 16:48:30;;;;;;;;;3.33;2.00;;;;;28.40;29.40;98815.59;4974253;28;52379;-81
2023/03/08 16:50:58;;;;;;;;;4.67;1.00;;;;;28.43;29.47;98806.06;4973237;28;45432;-77
2023/03/08 16:53:25;;;;;;;;;1.00;0.00;;;;;28.47;28.99;98808.06;4972302;28;45449;-78
2023/03/08 16:55:51;;;;;;;;;1.33;0.00;;;;;28.51;28.82;98805.66;4964481;28;45623;-80
2023/03/08 16:58:18;;;;;;;;;1.00;1.00;;;;;28.54;28.94;98814.16;4964706;28;46427;-76
2023/03/08 17:00:44;;;;;;;;;4.67;2.00;;;;;28.56;28.80;98813.13;4953661;28;45776;-84
2023/03/08 17:03:10;;;;;;;;;2.00;2.00;;;;;28.57;29.21;98821.03;4960426;28;45489;-80
2023/03/08 17:05:40;;;;;;;;;3.67;3.00;;;;;28.58;29.39;98814.53;4972056;28;45519;-78
2023/03/08 17:08:06;;;;;;;;;3.00;3.00;;;;;28.60;29.44;98808.81;4958733;28;45514;-77
2023/03/08 17:10:39;;;;;;;;;2.67;2.00;;;;;28.62;29.24;98817.56;4967363;28;45499;-82
2023/03/08 17:13:04;;;;;;;;;2.33;2.00;;;;;28.64;28.93;98823.59;4955712;28;45435;-80
2023/03/08 17:15:30;;;;;;;;;1.00;1.00;;;;;28.65;28.78;98817.09;4969265;28;45732;-82
2023/03/08 17:17:56;;;;;;;;;1.00;1.00;;;;;28.69;29.53;98814.69;4971241;28;45346;-82
2023/03/08 17:20:21;;;;;;;;;4.00;1.33;;;;;28.73;29.13;98821.28;4960327;28;45624;-79
2023/03/08 17:22:46;;;;;;;;;3.33;2.00;;;;;28.75;29.52;98817.22;4972431;28;45507;-81
2023/03/08 17:25:12;;;;;;;;;4.00;3.00;;;;;28.78;28.93;98832.28;4971478;28;45496;-85
2023/03/08 17:27:40;;;;;;;;;5.00;3.00;;;;;28.79;29.39;98837.50;4971201;27;46092;-82
2023/03/08 17:30:06;;;;;;;;;1.00;1.00;;;;;28.80;29.20;98841.03;5019210;28;45419;-81
2023/03/08 17:32:32;;;;;;;;;1.33;1.00;;;;;28.80;28.85;98835.56;4963106;28;45343;-78
2023/03/08 17:34:57;;;;;;;;;4.00;3.00;;;;;28.81;29.10;98845.41;4965914;28;45526;-79
2023/03/08 17:37:23;;;;;;;;;6.00;2.33;;;;;28.82;29.35;98843.53;4962839;28;45949;-77
2023/03/08 17:39:48;;;;;;;;;4.67;4.33;;;;;28.82;29.78;98844.38;4959640;28;45407;-79
2023/03/08 17:42:13;;;;;;;;;6.33;1.33;;;;;28.83;29.82;98850.63;4958260;28;45944;-77
2023/03/08 17:44:39;;;;;;;;;1.00;1.00;;;;;28.83;29.21;98846.00;4964126;28;45578;-75
2023/03/08 17:47:04;;;;;;;;;7.33;4.33;;;;;28.85;29.34;98848.50;4963869;28;46723;-74
2023/03/08 17:49:29;;;;;;;;;4.00;2.00;;;;;28.84;29.03;98846.81;4966506;28;45538;-75
2023/03/08 17:51:55;;;;;;;;;4.67;3.33;;;;;28.83;29.15;98842.44;4970829;28;45411;-74
2023/03/08 17:54:20;;;;;;;;;2.00;2.00;;;;;28.77;29.03;98830.63;4972681;28;45497;-75
2023/03/08 17:56:45;;;;;;;;;7.33;2.67;;;;;28.75;29.40;98841.81;4959492;28;46146;-79
2023/03/08 17:59:16;;;;;;;;;2.00;2.00;;;;;28.75;29.09;98830.88;4974550;28;45435;-76
2023/03/08 18:01:41;;;;;;;;;2.00;2.00;;;;;28.76;28.67;98839.88;4968110;28;45505;-79
2023/03/08 18:04:07;;;;;;;;;1.00;1.00;;;;;28.73;29.39;98834.94;4967654;28;45556;-79
2023/03/08 18:06:36;;;;;;;;;1.00;1.00;;;;;28.76;29.05;98831.69;4969289;28;45515;-76
2023/03/08 18:09:06;;;;;;;;;2.00;2.00;;;;;28.74;28.63;98829.22;4966692;28;45533;-75
2023/03/08 18:11:36;;;;;;;;;4.67;1.00;;;;;28.70;28.51;98829.97;4969018;28;45450;-75
2023/03/08 18:14:02;;;;;;;;;2.00;2.00;;;;;28.64;28.59;98832.63;4955481;28;45691;-77
2023/03/08 18:16:28;;;;;;;;;4.33;4.33;;;;;28.62;28.98;98823.88;4978854;27;47116;-77
2023/03/08 18:18:53;;;;;;;;;3.00;2.00;;;;;28.60;28.73;98830.66;4953413;28;45388;-79
2023/03/08 18:21:20;;;;;;;;;4.00;2.00;;;;;28.59;28.63;98829.81;4965648;28;45467;-77
2023/03/08 18:23:45;;;;;;;;;2.00;2.00;;;;;28.61;28.57;98832.31;4958968;28;45661;-79
2023/03/08 18:26:12;;;;;;;;;1.00;1.00;;;;;28.64;29.29;98829.06;4961200;28;45343;-76
2023/03/08 18:28:38;;;;;;;;;1.33;1.33;;;;;28.64;29.05;98829.06;4962180;28;45908;-79
2023/03/08 18:31:08;;;;;;;;;1.00;1.00;;;;;28.66;29.04;98832.38;4963565;27;45504;-80
2023/03/08 18:33:34;;;;;;;;;2.00;1.00;;;;;28.67;28.74;98843.06;4960922;28;45740;-80
2023/03/08 18:35:59;;;;;;;;;2.33;1.00;;;;;28.70;28.69;98833.53;4962739;28;45856;-80
2023/03/08 18:38:24;;;;;;;;;1.00;1.00;;;;;28.72;28.79;98834.09;4959317;28;45510;-84
2023/03/08 18:40:50;;;;;;;;;1.00;1.00;;;;;28.75;29.39;98841.81;4958420;28;45750;-82
2023/03/08 18:43:15;;;;;;;;;2.33;2.00;;;;;28.77;29.27;98844.28;4962868;28;45450;-78
2023/03/08 18:45:48;;;;;;;;;0.67;0.67;;;;;28.80;29.29;98841.03;4957832;28;48890;-79
2023/03/08 18:48:13;;;;;;;;;1.67;0.67;;;;;28.83;29.53;98842.44;4961577;28;45540;-77
2023/03/08 18:50:42;;;;;;;;;1.00;1.00;;;;;28.85;29.35;98851.22;4960204;28;45729;-78
2023/03/08 18:53:07;;;;;;;;;3.00;1.33;;;;;28.88;29.04;98856.16;4968810;28;45728;-77
2023/03/08 18:55:32;;;;;;;;;1.00;1.00;;;;;28.90;28.80;98851.31;4961032;28;52669;-77
2023/03/08 18:57:57;;;;;;;;;1.33;1.33;;;;;28.91;29.66;98859.28;4960951;28;47773;-80
2023/03/08 19:00:23;;;;;;;;;2.33;1.00;;;;;28.92;29.03;98862.81;4965365;28;46158;-78